Kezdőlap
METAR-TAF:

METAR-TAF

Repülőterek :

Aden, Jemen

földrajzi szélesség: 12-40N, földrajzi hosszúság: 045-02E, magasság: 3 m

Jelenlegi meteorológiai megfigyelések

A jelentés 1 órával és 0 perccel ezelõtt készült, 03:00 UTC
Nyugat-délnyugati szél 6 kt
Hőmérséklet 33°C
Páratartalom 84%
Légköri nyomás 1001 hPa
Látótávolság: 7000 m
Kevés felhő 2500 lábon
Szórványos felhőzet 10000 lábon

METAR: OYAA 220300Z 25006KT 7000 FEW025 SCT100 33/30 Q1001 NOSIG

Idő: 07:00 (04:00 UTC)


TAF: hiányzik

Meteorológiai megfigyelések és előrejelzések több, mint 4000 repülőtéren (METAR és TAF jelentéseket).

A térképen piros és sárga pontok jelzik az elérhető meteorológiai állomásokat.

Mozgassa az egeret a pont fölött, hogy megjelenjen az állomás neve.

Azután kattintson az időjárási megfigyelések és előrejelzések megtekintéséhez.

A térkép megváltoztatása: kattintson a fekete keresztel jelölt zöld gombra ráközelítéshez, a vonallal jelölt zöld gombra távolításhoz, vagy a zöld nyilakra a szomszédos térképek eléréséhez.


METAR-TAF: